createdAt,value
2023-05-21T00:00:21.166Z,662.00
2023-05-21T00:01:21.200Z,664.00
2023-05-21T00:02:21.233Z,672.00
2023-05-21T00:03:21.348Z,671.00
2023-05-21T00:04:21.354Z,666.00
2023-05-21T00:05:21.390Z,674.00
2023-05-21T00:06:21.478Z,665.00
2023-05-21T00:07:21.439Z,679.00
2023-05-21T00:08:21.517Z,670.00
2023-05-21T00:09:21.488Z,665.00
2023-05-21T00:10:21.595Z,668.00
2023-05-21T00:11:21.609Z,666.00
2023-05-21T00:12:21.649Z,668.00
2023-05-21T00:13:21.673Z,665.00
2023-05-21T00:14:21.731Z,677.00
2023-05-21T00:15:21.782Z,662.00
2023-05-21T00:16:21.849Z,683.00
2023-05-21T00:17:21.860Z,676.00
2023-05-21T00:18:21.898Z,672.00
2023-05-21T00:19:22.002Z,665.00
2023-05-21T00:20:21.984Z,675.00
2023-05-21T00:21:22.023Z,666.00
2023-05-21T00:22:22.043Z,671.00
2023-05-21T00:23:22.110Z,676.00
2023-05-21T00:24:22.108Z,681.00
2023-05-21T00:25:22.184Z,664.00
2023-05-21T00:26:22.202Z,672.00
2023-05-21T00:27:22.237Z,662.00
2023-05-21T00:28:22.283Z,674.00
2023-05-21T00:29:22.359Z,673.00
2023-05-21T00:30:22.411Z,665.00
2023-05-21T00:31:22.495Z,680.00
2023-05-21T00:32:22.498Z,675.00
2023-05-21T00:33:22.493Z,673.00
2023-05-21T00:34:22.543Z,674.00
2023-05-21T00:35:22.624Z,661.00
2023-05-21T00:36:22.623Z,662.00
2023-05-21T00:37:22.670Z,674.00
2023-05-21T00:38:22.715Z,673.00
2023-05-21T00:39:22.730Z,662.00
2023-05-21T00:40:22.790Z,665.00
2023-05-21T00:41:22.823Z,672.00
2023-05-21T00:42:22.864Z,664.00
2023-05-21T00:43:22.940Z,665.00
2023-05-21T00:44:22.950Z,661.00
2023-05-21T00:45:22.984Z,663.00
2023-05-21T00:46:23.124Z,668.00
2023-05-21T00:47:23.139Z,666.00
2023-05-21T00:48:23.125Z,666.00
2023-05-21T00:49:23.188Z,671.00
2023-05-21T00:50:23.220Z,666.00
2023-05-21T00:51:23.284Z,666.00
2023-05-21T00:52:23.305Z,666.00
2023-05-21T00:53:23.344Z,672.00
2023-05-21T00:54:23.393Z,671.00
2023-05-21T00:55:23.454Z,670.00
2023-05-21T00:56:23.464Z,663.00
2023-05-21T00:57:23.484Z,667.00
2023-05-21T00:58:23.516Z,666.00
2023-05-21T00:59:23.625Z,673.00
2023-05-21T01:00:23.649Z,667.00
2023-05-21T01:01:23.766Z,662.00
2023-05-21T01:02:23.805Z,678.00
2023-05-21T01:03:24.039Z,681.00
2023-05-21T01:04:23.867Z,677.00
2023-05-21T01:05:23.874Z,672.00
2023-05-21T01:06:23.921Z,662.00
2023-05-21T01:07:23.983Z,663.00
2023-05-21T01:08:23.979Z,683.00
2023-05-21T01:09:24.029Z,671.00
2023-05-21T01:10:24.069Z,674.00
2023-05-21T01:11:24.133Z,668.00
2023-05-21T01:12:24.183Z,670.00
2023-05-21T01:13:24.216Z,665.00
2023-05-21T01:14:24.266Z,679.00
2023-05-21T01:15:24.308Z,667.00
2023-05-21T01:16:25.289Z,680.00
2023-05-21T01:17:24.519Z,672.00
2023-05-21T01:18:24.481Z,676.00
2023-05-21T01:19:24.507Z,668.00
2023-05-21T01:20:24.549Z,665.00
2023-05-21T01:21:24.543Z,678.00
2023-05-21T01:22:24.619Z,672.00
2023-05-21T01:23:24.643Z,663.00
2023-05-21T01:24:24.717Z,673.00
2023-05-21T01:25:24.778Z,669.00
2023-05-21T01:26:24.792Z,666.00
2023-05-21T01:27:24.811Z,665.00
2023-05-21T01:28:24.885Z,672.00
2023-05-21T01:29:24.898Z,668.00
2023-05-21T01:30:25.041Z,676.00
2023-05-21T01:31:25.010Z,673.00
2023-05-21T01:32:25.075Z,668.00
2023-05-21T01:33:25.212Z,673.00
2023-05-21T01:34:25.132Z,674.00
2023-05-21T01:35:25.185Z,665.00
2023-05-21T01:36:25.226Z,664.00
2023-05-21T01:37:25.270Z,681.00
2023-05-21T01:38:25.322Z,670.00
2023-05-21T01:39:25.331Z,664.00
2023-05-21T01:40:25.409Z,681.00
2023-05-21T01:41:25.411Z,684.00
2023-05-21T01:42:25.474Z,666.00
2023-05-21T01:43:25.522Z,678.00
2023-05-21T01:44:25.545Z,680.00
2023-05-21T01:45:25.607Z,665.00
2023-05-21T01:46:25.722Z,683.00
2023-05-21T01:47:25.721Z,682.00
2023-05-21T01:48:25.746Z,685.00
2023-05-21T01:49:25.829Z,677.00
2023-05-21T01:50:25.872Z,686.00
2023-05-21T01:51:25.860Z,672.00
2023-05-21T01:52:25.922Z,674.00
2023-05-21T01:53:25.956Z,673.00
2023-05-21T01:54:26.011Z,681.00
2023-05-21T01:55:26.078Z,678.00
2023-05-21T01:56:26.143Z,665.00
2023-05-21T01:57:26.192Z,674.00
2023-05-21T01:58:26.189Z,684.00
2023-05-21T01:59:26.260Z,666.00
2023-05-21T02:00:26.303Z,684.00
2023-05-21T02:01:26.338Z,674.00
2023-05-21T02:02:26.404Z,681.00
2023-05-21T02:03:26.538Z,672.00
2023-05-21T02:04:26.444Z,683.00
2023-05-21T02:05:26.528Z,663.00
2023-05-21T02:06:26.536Z,686.00
2023-05-21T02:07:26.619Z,684.00
2023-05-21T02:08:26.632Z,678.00
2023-05-21T02:09:26.665Z,686.00
2023-05-21T02:10:26.735Z,676.00
2023-05-21T02:11:26.751Z,668.00
2023-05-21T02:12:26.771Z,691.00
2023-05-21T02:13:27.093Z,673.00
2023-05-21T02:14:26.866Z,673.00
2023-05-21T02:15:26.978Z,679.00
2023-05-21T02:16:27.013Z,689.00
2023-05-21T02:17:27.030Z,682.00
2023-05-21T02:18:27.044Z,687.00
2023-05-21T02:19:27.178Z,682.00
2023-05-21T02:20:27.160Z,673.00
2023-05-21T02:21:27.244Z,669.00
2023-05-21T02:22:27.226Z,676.00
2023-05-21T02:23:27.284Z,678.00
2023-05-21T02:24:27.310Z,672.00
2023-05-21T02:25:27.340Z,679.00
2023-05-21T02:26:27.420Z,690.00
2023-05-21T02:27:27.455Z,673.00
2023-05-21T02:28:27.471Z,701.00
2023-05-21T02:29:27.529Z,665.00
2023-05-21T02:30:27.609Z,686.00
2023-05-21T02:31:27.626Z,695.00
2023-05-21T02:32:27.710Z,683.00
2023-05-21T02:33:27.710Z,677.00
2023-05-21T02:34:27.826Z,683.00
2023-05-21T02:35:27.841Z,672.00
2023-05-21T02:36:27.834Z,679.00
2023-05-21T02:37:27.861Z,691.00
2023-05-21T02:38:27.927Z,691.00
2023-05-21T02:39:27.971Z,669.00
2023-05-21T02:40:28.053Z,683.00
2023-05-21T02:41:28.066Z,693.00
2023-05-21T02:42:28.104Z,691.00
2023-05-21T02:43:28.144Z,684.00
2023-05-21T02:44:28.180Z,675.00
2023-05-21T02:45:28.257Z,670.00
2023-05-21T02:46:28.363Z,677.00
2023-05-21T02:47:28.402Z,687.00
2023-05-21T02:48:28.383Z,689.00
2023-05-21T02:49:28.424Z,695.00
2023-05-21T02:50:28.561Z,677.00
2023-05-21T02:51:28.507Z,694.00
2023-05-21T02:52:28.563Z,671.00
2023-05-21T02:53:28.586Z,683.00
2023-05-21T02:54:28.608Z,673.00
2023-05-21T02:55:28.690Z,685.00
2023-05-21T02:56:28.717Z,687.00
2023-05-21T02:57:28.758Z,690.00
2023-05-21T02:58:28.792Z,680.00
2023-05-21T02:59:28.881Z,696.00
2023-05-21T03:00:28.998Z,701.00
2023-05-21T03:01:28.982Z,688.00
2023-05-21T03:02:28.990Z,684.00
2023-05-21T03:03:29.114Z,697.00
2023-05-21T03:04:29.087Z,682.00
2023-05-21T03:05:29.143Z,686.00
2023-05-21T03:06:29.163Z,670.00
2023-05-21T03:07:29.148Z,668.00
2023-05-21T03:08:29.239Z,680.00
2023-05-21T03:09:29.235Z,692.00
2023-05-21T03:10:29.316Z,672.00
2023-05-21T03:11:29.358Z,694.00
2023-05-21T03:12:29.407Z,706.00
2023-05-21T03:13:29.461Z,679.00
2023-05-21T03:14:29.509Z,672.00
2023-05-21T03:15:29.523Z,681.00
2023-05-21T03:16:29.576Z,687.00
2023-05-21T03:17:29.635Z,678.00
2023-05-21T03:18:29.665Z,695.00
2023-05-21T03:19:29.767Z,683.00
2023-05-21T03:20:29.782Z,695.00
2023-05-21T03:21:29.764Z,678.00
2023-05-21T03:22:29.792Z,685.00
2023-05-21T03:23:29.851Z,695.00
2023-05-21T03:24:29.905Z,680.00
2023-05-21T03:25:29.949Z,680.00
2023-05-21T03:26:29.971Z,675.00
2023-05-21T03:27:30.066Z,685.00
2023-05-21T03:28:30.116Z,679.00
2023-05-21T03:29:30.144Z,689.00
2023-05-21T03:30:30.165Z,679.00
2023-05-21T03:31:30.257Z,687.00
2023-05-21T03:32:30.304Z,684.00
2023-05-21T03:33:30.295Z,693.00
2023-05-21T03:34:30.333Z,671.00
2023-05-21T03:35:30.378Z,686.00
2023-05-21T03:36:30.429Z,685.00
2023-05-21T03:37:30.488Z,695.00
2023-05-21T03:38:30.544Z,684.00
2023-05-21T03:39:30.556Z,669.00
2023-05-21T03:40:30.646Z,689.00
2023-05-21T03:41:30.655Z,677.00
2023-05-21T03:42:30.720Z,682.00
2023-05-21T03:43:30.754Z,684.00
2023-05-21T03:44:30.786Z,673.00
2023-05-21T03:45:30.856Z,683.00
2023-05-21T03:46:30.956Z,677.00
2023-05-21T03:47:30.921Z,678.00
2023-05-21T03:48:30.974Z,672.00
2023-05-21T03:49:31.026Z,688.00
2023-05-21T03:50:31.029Z,688.00
2023-05-21T03:51:31.101Z,670.00
2023-05-21T03:52:31.147Z,676.00
2023-05-21T03:53:31.162Z,681.00
2023-05-21T03:54:31.191Z,689.00
2023-05-21T03:55:31.253Z,674.00
2023-05-21T03:56:31.267Z,686.00
2023-05-21T03:57:31.339Z,700.00
2023-05-21T03:58:31.402Z,691.00
2023-05-21T03:59:31.406Z,696.00
2023-05-21T04:00:31.461Z,688.00
2023-05-21T04:01:31.511Z,684.00
2023-05-21T04:02:31.608Z,686.00
2023-05-21T04:03:31.851Z,689.00
2023-05-21T04:04:31.670Z,690.00
2023-05-21T04:05:31.705Z,689.00
2023-05-21T04:06:31.738Z,683.00
2023-05-21T04:07:31.776Z,673.00
2023-05-21T04:08:31.828Z,677.00
2023-05-21T04:09:31.916Z,685.00
2023-05-21T04:10:31.972Z,678.00
2023-05-21T04:11:31.968Z,685.00
2023-05-21T04:12:32.097Z,678.00
2023-05-21T04:13:32.111Z,676.00
2023-05-21T04:14:32.074Z,678.00
2023-05-21T04:15:32.156Z,672.00
2023-05-21T04:16:32.168Z,686.00
2023-05-21T04:17:32.230Z,669.00
2023-05-21T04:18:32.246Z,685.00
2023-05-21T04:19:32.505Z,665.00
2023-05-21T04:20:32.384Z,670.00
2023-05-21T04:21:32.378Z,669.00
2023-05-21T04:22:32.460Z,683.00
2023-05-21T04:23:32.513Z,669.00
2023-05-21T04:24:32.543Z,680.00
2023-05-21T04:25:32.638Z,664.00
2023-05-21T04:26:32.606Z,672.00
2023-05-21T04:27:32.670Z,679.00
2023-05-21T04:28:32.695Z,670.00
2023-05-21T04:29:32.766Z,665.00
2023-05-21T04:30:32.837Z,668.00
2023-05-21T04:31:32.858Z,665.00
2023-05-21T04:32:32.926Z,664.00
2023-05-21T04:33:32.917Z,679.00
2023-05-21T04:34:32.978Z,667.00
2023-05-21T04:35:33.206Z,659.00
2023-05-21T04:36:33.084Z,665.00
2023-05-21T04:37:33.097Z,672.00
2023-05-21T04:38:33.134Z,665.00
2023-05-21T04:39:33.219Z,663.00
2023-05-21T04:40:33.287Z,670.00
2023-05-21T04:41:33.212Z,688.00
2023-05-21T04:42:33.261Z,661.00
2023-05-21T04:43:33.241Z,664.00
2023-05-21T04:44:33.194Z,668.00
2023-05-21T04:45:33.240Z,665.00
2023-05-21T04:46:33.208Z,665.00
2023-05-21T04:47:33.239Z,656.00
2023-05-21T04:48:33.190Z,671.00
2023-05-21T04:49:33.185Z,666.00
2023-05-21T04:50:33.172Z,663.00
2023-05-21T04:51:33.172Z,660.00
2023-05-21T04:52:33.130Z,675.00
2023-05-21T04:53:33.132Z,671.00
2023-05-21T04:54:33.149Z,661.00
2023-05-21T04:55:33.120Z,664.00
2023-05-21T04:56:33.106Z,665.00
2023-05-21T04:57:33.105Z,660.00
2023-05-21T04:58:33.066Z,663.00
2023-05-21T04:59:33.112Z,664.00
2023-05-21T05:00:33.148Z,667.00
2023-05-21T05:01:33.081Z,662.00
2023-05-21T05:02:33.108Z,662.00
2023-05-21T05:03:33.082Z,666.00
2023-05-21T05:04:33.064Z,666.00
2023-05-21T05:05:33.084Z,662.00
2023-05-21T05:06:33.023Z,660.00
2023-05-21T05:07:33.028Z,663.00
2023-05-21T05:08:33.027Z,658.00
2023-05-21T05:09:33.001Z,655.00
2023-05-21T05:10:33.016Z,658.00
2023-05-21T05:11:32.988Z,656.00
2023-05-21T05:12:33.041Z,658.00
2023-05-21T05:13:32.996Z,664.00
2023-05-21T05:14:33.001Z,665.00
2023-05-21T05:15:32.981Z,662.00
2023-05-21T05:16:33.039Z,653.00
2023-05-21T05:17:32.964Z,656.00
2023-05-21T05:18:33.016Z,651.00
2023-05-21T05:19:33.080Z,662.00
2023-05-21T05:20:33.140Z,657.00
2023-05-21T05:21:33.170Z,658.00
2023-05-21T05:22:33.173Z,656.00
2023-05-21T05:23:33.231Z,664.00
2023-05-21T05:24:33.302Z,660.00
2023-05-21T05:25:33.378Z,654.00
2023-05-21T05:26:33.383Z,671.00
2023-05-21T05:27:33.420Z,658.00
2023-05-21T05:28:33.469Z,657.00
2023-05-21T05:29:33.599Z,659.00
2023-05-21T05:30:33.616Z,664.00
2023-05-21T05:31:33.635Z,656.00
2023-05-21T05:32:33.687Z,657.00
2023-05-21T05:33:33.689Z,658.00
2023-05-21T05:34:33.720Z,659.00
2023-05-21T05:35:33.880Z,658.00
2023-05-21T05:36:33.845Z,658.00
2023-05-21T05:37:33.850Z,660.00
2023-05-21T05:38:33.892Z,654.00
2023-05-21T05:39:33.966Z,658.00
2023-05-21T05:40:34.033Z,657.00
2023-05-21T05:41:34.075Z,661.00
2023-05-21T05:42:34.067Z,655.00
2023-05-21T05:43:34.104Z,658.00
2023-05-21T05:44:34.154Z,661.00
2023-05-21T05:45:34.523Z,660.00
2023-05-21T05:46:34.280Z,656.00
2023-05-21T05:47:34.343Z,657.00
2023-05-21T05:48:34.355Z,654.00
2023-05-21T05:49:34.372Z,658.00
2023-05-21T05:50:34.478Z,652.00
2023-05-21T05:51:34.472Z,657.00
2023-05-21T05:52:34.532Z,658.00
2023-05-21T05:53:34.579Z,660.00
2023-05-21T05:54:34.606Z,656.00
2023-05-21T05:55:34.859Z,656.00
2023-05-21T05:56:34.694Z,652.00
2023-05-21T05:57:34.715Z,654.00
2023-05-21T05:58:34.775Z,659.00
2023-05-21T05:59:34.810Z,658.00
2023-05-21T06:00:34.961Z,659.00
2023-05-21T06:01:34.923Z,653.00
2023-05-21T06:02:35.049Z,652.00
2023-05-21T06:03:35.123Z,656.00
2023-05-21T06:04:35.057Z,657.00
2023-05-21T06:05:35.372Z,656.00
2023-05-21T06:06:35.123Z,656.00
2023-05-21T06:07:35.161Z,656.00
2023-05-21T06:08:36.701Z,655.00
2023-05-21T06:09:35.203Z,658.00
2023-05-21T06:10:35.214Z,658.00
2023-05-21T06:11:35.187Z,654.00
2023-05-21T06:12:35.223Z,660.00
2023-05-21T06:13:35.218Z,661.00
2023-05-21T06:14:35.171Z,663.00
2023-05-21T06:15:35.449Z,659.00
2023-05-21T06:16:35.211Z,658.00
2023-05-21T06:17:35.163Z,660.00
2023-05-21T06:18:35.166Z,656.00
2023-05-21T06:19:35.162Z,646.00
2023-05-21T06:20:35.188Z,659.00
2023-05-21T06:21:35.125Z,653.00
2023-05-21T06:22:35.142Z,653.00
2023-05-21T06:23:35.127Z,651.00
2023-05-21T06:24:35.113Z,653.00
2023-05-21T06:25:35.417Z,650.00
2023-05-21T06:26:35.091Z,656.00
2023-05-21T06:27:35.164Z,654.00
2023-05-21T06:28:35.098Z,651.00
2023-05-21T06:29:35.083Z,651.00
2023-05-21T06:30:35.054Z,656.00
2023-05-21T06:31:35.053Z,653.00
2023-05-21T06:32:35.091Z,649.00
2023-05-21T06:33:35.103Z,652.00
2023-05-21T06:34:35.009Z,650.00
2023-05-21T06:35:35.286Z,654.00
2023-05-21T06:36:34.994Z,653.00
2023-05-21T06:37:34.988Z,650.00
2023-05-21T06:38:34.999Z,650.00
2023-05-21T06:39:34.973Z,648.00
2023-05-21T06:40:34.997Z,652.00
2023-05-21T06:41:34.991Z,650.00
2023-05-21T06:42:34.975Z,649.00
2023-05-21T06:43:34.972Z,651.00
2023-05-21T06:44:34.932Z,651.00
2023-05-21T06:45:35.134Z,650.00
2023-05-21T06:46:35.195Z,646.00
2023-05-21T06:47:34.974Z,650.00
2023-05-21T06:48:34.897Z,645.00
2023-05-21T06:49:34.897Z,644.00
2023-05-21T06:50:34.905Z,647.00
2023-05-21T06:51:34.899Z,647.00
2023-05-21T06:52:34.896Z,646.00
2023-05-21T06:53:34.911Z,644.00
2023-05-21T06:54:34.883Z,646.00
2023-05-21T06:55:35.197Z,642.00
2023-05-21T06:56:34.879Z,652.00
2023-05-21T06:57:34.866Z,645.00
2023-05-21T06:58:34.893Z,642.00
2023-05-21T06:59:34.859Z,641.00
2023-05-21T07:00:34.848Z,643.00
2023-05-21T07:01:34.903Z,642.00
2023-05-21T07:02:34.966Z,647.00
2023-05-21T07:03:34.860Z,642.00
2023-05-21T07:04:34.843Z,649.00
2023-05-21T07:05:35.253Z,643.00
2023-05-21T07:06:34.852Z,647.00
2023-05-21T07:07:34.993Z,645.00
2023-05-21T07:08:34.970Z,644.00
2023-05-21T07:09:35.029Z,650.00
2023-05-21T07:10:34.958Z,646.00
2023-05-21T07:11:34.996Z,644.00
2023-05-21T07:12:35.038Z,647.00
2023-05-21T07:13:35.054Z,646.00
2023-05-21T07:14:35.039Z,647.00
2023-05-21T07:15:35.256Z,641.00
2023-05-21T07:16:35.133Z,643.00
2023-05-21T07:17:35.165Z,649.00
2023-05-21T07:18:35.159Z,645.00
2023-05-21T07:19:35.171Z,654.00
2023-05-21T07:20:35.241Z,642.00
2023-05-21T07:21:35.232Z,644.00
2023-05-21T07:22:35.229Z,644.00
2023-05-21T07:23:35.247Z,639.00
2023-05-21T07:24:35.320Z,640.00
2023-05-21T07:25:35.593Z,640.00
2023-05-21T07:26:35.339Z,638.00
2023-05-21T07:27:35.371Z,645.00
2023-05-21T07:28:35.396Z,637.00
2023-05-21T07:29:35.434Z,640.00
2023-05-21T07:30:35.431Z,637.00
2023-05-21T07:31:35.602Z,637.00
2023-05-21T07:32:35.485Z,636.00
2023-05-21T07:33:35.496Z,648.00
2023-05-21T07:34:35.519Z,639.00
2023-05-21T07:35:35.749Z,636.00
2023-05-21T07:36:35.555Z,637.00
2023-05-21T07:37:35.632Z,638.00
2023-05-21T07:38:35.636Z,637.00
2023-05-21T07:39:35.611Z,637.00
2023-05-21T07:40:35.663Z,638.00
2023-05-21T07:41:35.680Z,637.00
2023-05-21T07:42:35.671Z,634.00
2023-05-21T07:43:35.702Z,641.00
2023-05-21T07:44:35.742Z,639.00
2023-05-21T07:45:35.993Z,634.00
2023-05-21T07:46:35.827Z,638.00
2023-05-21T07:47:35.946Z,637.00
2023-05-21T07:48:35.915Z,635.00
2023-05-21T07:49:35.809Z,636.00
2023-05-21T07:50:35.869Z,637.00
2023-05-21T07:51:35.859Z,633.00
2023-05-21T07:52:36.136Z,629.00
2023-05-21T07:53:35.909Z,632.00
2023-05-21T07:54:35.935Z,636.00
2023-05-21T07:55:36.217Z,636.00
2023-05-21T07:56:35.932Z,638.00
2023-05-21T07:57:35.958Z,631.00
2023-05-21T07:58:35.991Z,631.00
2023-05-21T07:59:35.991Z,641.00
2023-05-21T08:00:36.042Z,632.00
2023-05-21T08:01:36.030Z,637.00
2023-05-21T08:02:36.110Z,633.00
2023-05-21T08:03:36.196Z,634.00
2023-05-21T08:04:38.525Z,635.00
2023-05-21T08:05:36.269Z,635.00
2023-05-21T08:06:36.106Z,635.00
2023-05-21T08:07:36.067Z,632.00
2023-05-21T08:08:36.058Z,634.00
2023-05-21T08:09:36.051Z,636.00
2023-05-21T08:10:36.052Z,634.00
2023-05-21T08:11:36.225Z,636.00
2023-05-21T08:12:36.036Z,638.00
2023-05-21T08:13:36.043Z,637.00
2023-05-21T08:14:36.020Z,632.00
2023-05-21T08:15:36.209Z,636.00
2023-05-21T08:16:36.223Z,634.00
2023-05-21T08:17:36.029Z,638.00
2023-05-21T08:18:36.080Z,640.00
2023-05-21T08:19:36.008Z,633.00
2023-05-21T08:20:36.053Z,635.00
2023-05-21T08:21:43.582Z,633.00
2023-05-21T08:22:35.975Z,634.00
2023-05-21T08:23:35.961Z,635.00
2023-05-21T08:24:35.941Z,636.00
2023-05-21T08:25:36.159Z,637.00
2023-05-21T08:26:35.943Z,637.00
2023-05-21T08:27:35.947Z,632.00
2023-05-21T08:28:35.905Z,637.00
2023-05-21T08:29:35.917Z,637.00
2023-05-21T08:30:35.902Z,638.00
2023-05-21T08:31:35.938Z,634.00
2023-05-21T08:32:35.919Z,628.00
2023-05-21T08:33:35.877Z,628.00
2023-05-21T08:34:35.885Z,627.00
2023-05-21T08:35:36.055Z,629.00
2023-05-21T08:36:35.869Z,628.00
2023-05-21T08:37:35.830Z,632.00
2023-05-21T08:38:35.840Z,627.00
2023-05-21T08:39:35.868Z,622.00
2023-05-21T08:40:35.954Z,628.00
2023-05-21T08:41:35.846Z,631.00
2023-05-21T08:42:37.586Z,628.00
2023-05-21T08:43:35.817Z,626.00
2023-05-21T08:44:35.816Z,625.00
2023-05-21T08:45:35.913Z,629.00
2023-05-21T08:46:35.786Z,629.00
2023-05-21T08:47:35.819Z,626.00
2023-05-21T08:48:35.867Z,628.00
2023-05-21T08:49:35.934Z,629.00
2023-05-21T08:50:35.759Z,626.00
2023-05-21T08:51:35.752Z,627.00
2023-05-21T08:52:35.752Z,624.00
2023-05-21T08:53:35.747Z,621.00
2023-05-21T08:54:35.767Z,624.00
2023-05-21T08:55:35.871Z,625.00
2023-05-21T08:56:35.842Z,627.00
2023-05-21T08:57:35.728Z,632.00
2023-05-21T08:58:35.699Z,629.00
2023-05-21T08:59:35.748Z,626.00
2023-05-21T09:00:35.693Z,632.00
2023-05-21T09:01:35.737Z,625.00
2023-05-21T09:02:35.717Z,629.00
2023-05-21T09:03:35.703Z,628.00
2023-05-21T09:04:35.700Z,632.00
2023-05-21T09:05:35.797Z,631.00
2023-05-21T09:06:35.668Z,632.00
2023-05-21T09:07:35.673Z,628.00
2023-05-21T09:08:35.632Z,628.00
2023-05-21T09:09:35.699Z,620.00
2023-05-21T09:10:43.586Z,627.00
2023-05-21T09:11:35.621Z,628.00
2023-05-21T09:12:35.596Z,628.00
2023-05-21T09:13:37.526Z,627.00
2023-05-21T09:14:35.642Z,630.00
2023-05-21T09:15:35.777Z,627.00
2023-05-21T09:16:35.611Z,622.00
2023-05-21T09:17:35.609Z,625.00
2023-05-21T09:18:35.596Z,627.00
2023-05-21T09:19:35.751Z,619.00
2023-05-21T09:20:35.587Z,616.00
2023-05-21T09:21:35.594Z,617.00
2023-05-21T09:22:35.548Z,615.00
2023-05-21T09:23:35.551Z,618.00
2023-05-21T09:24:36.603Z,619.00
2023-05-21T09:25:35.693Z,619.00
2023-05-21T09:26:35.544Z,623.00
2023-05-21T09:27:35.519Z,624.00
2023-05-21T09:28:35.536Z,623.00
2023-05-21T09:29:35.511Z,621.00
2023-05-21T09:30:36.263Z,616.00
2023-05-21T09:31:35.519Z,613.00
2023-05-21T09:32:35.523Z,615.00
2023-05-21T09:33:35.465Z,614.00
2023-05-21T09:34:35.438Z,614.00
2023-05-21T09:35:36.247Z,612.00
2023-05-21T09:36:35.461Z,609.00
2023-05-21T09:37:35.448Z,616.00
2023-05-21T09:38:35.424Z,608.00
2023-05-21T09:39:35.422Z,608.00
2023-05-21T09:40:35.615Z,606.00
2023-05-21T09:41:35.413Z,604.00
2023-05-21T09:42:35.426Z,608.00
2023-05-21T09:43:35.407Z,611.00
2023-05-21T09:44:35.392Z,608.00
2023-05-21T09:45:35.534Z,608.00
2023-05-21T09:46:35.410Z,610.00
2023-05-21T09:47:35.451Z,612.00
2023-05-21T09:48:35.500Z,612.00
2023-05-21T09:49:35.524Z,613.00
2023-05-21T09:50:35.856Z,612.00
2023-05-21T09:51:35.640Z,616.00
2023-05-21T09:52:35.700Z,609.00
2023-05-21T09:53:35.717Z,609.00
2023-05-21T09:54:35.818Z,617.00
2023-05-21T09:55:35.876Z,612.00
2023-05-21T09:56:35.905Z,605.00
2023-05-21T09:57:35.987Z,610.00
2023-05-21T09:58:36.015Z,607.00
2023-05-21T09:59:36.107Z,605.00
2023-05-21T10:00:36.313Z,602.00
2023-05-21T10:01:36.302Z,608.00
2023-05-21T10:02:36.277Z,606.00
2023-05-21T10:03:36.334Z,603.00
2023-05-21T10:04:36.436Z,602.00
2023-05-21T10:05:36.409Z,602.00
2023-05-21T10:06:36.487Z,601.00
2023-05-21T10:07:36.519Z,603.00
2023-05-21T10:08:36.596Z,604.00
2023-05-21T10:09:36.625Z,603.00
2023-05-21T10:10:36.821Z,600.00
2023-05-21T10:11:36.795Z,597.00
2023-05-21T10:12:36.841Z,594.00
2023-05-21T10:13:36.922Z,602.00
2023-05-21T10:14:36.968Z,600.00
2023-05-21T10:15:37.013Z,595.00
2023-05-21T10:16:37.209Z,597.00
2023-05-21T10:17:37.165Z,596.00
2023-05-21T10:18:37.188Z,594.00
2023-05-21T10:19:37.274Z,595.00
2023-05-21T10:20:37.542Z,591.00
2023-05-21T10:21:37.431Z,593.00
2023-05-21T10:22:37.441Z,589.00
2023-05-21T10:23:37.521Z,596.00
2023-05-21T10:24:37.570Z,592.00
2023-05-21T10:25:37.654Z,592.00
2023-05-21T10:26:37.700Z,593.00
2023-05-21T10:27:37.799Z,592.00
2023-05-21T10:28:37.863Z,588.00
2023-05-21T10:29:37.932Z,590.00
2023-05-21T10:30:38.320Z,591.00
2023-05-21T10:31:37.997Z,588.00
2023-05-21T10:32:38.177Z,592.00
2023-05-21T10:33:38.235Z,590.00
2023-05-21T10:34:38.149Z,586.00
2023-05-21T10:35:38.539Z,584.00
2023-05-21T10:36:38.295Z,586.00
2023-05-21T10:37:38.361Z,583.00
2023-05-21T10:38:38.437Z,587.00
2023-05-21T10:39:38.487Z,581.00
2023-05-21T10:40:38.632Z,582.00
2023-05-21T10:41:38.593Z,584.00
2023-05-21T10:42:38.662Z,579.00
2023-05-21T10:43:38.693Z,586.00
2023-05-21T10:44:38.776Z,582.00
2023-05-21T10:45:38.908Z,580.00
2023-05-21T10:46:38.950Z,582.00
2023-05-21T10:47:38.994Z,576.00
2023-05-21T10:48:39.035Z,575.00
2023-05-21T10:49:39.107Z,573.00
2023-05-21T10:50:39.285Z,575.00
2023-05-21T10:51:39.234Z,578.00
2023-05-21T10:52:39.288Z,573.00
2023-05-21T10:53:39.396Z,573.00
2023-05-21T10:54:39.398Z,571.00
2023-05-21T10:55:39.452Z,574.00
2023-05-21T10:56:39.545Z,573.00
2023-05-21T10:57:39.583Z,574.00
2023-05-21T10:58:39.648Z,568.00
2023-05-21T10:59:39.755Z,571.00
2023-05-21T11:00:39.791Z,569.00
2023-05-21T11:01:40.012Z,565.00
2023-05-21T11:02:40.001Z,570.00
2023-05-21T11:03:39.996Z,571.00
2023-05-21T11:04:40.183Z,567.00
2023-05-21T11:05:40.105Z,570.00
2023-05-21T11:06:40.150Z,569.00
2023-05-21T11:07:40.239Z,567.00
2023-05-21T11:08:40.272Z,566.00
2023-05-21T11:09:40.335Z,564.00
2023-05-21T11:10:40.527Z,567.00
2023-05-21T11:11:40.491Z,565.00
2023-05-21T11:12:40.499Z,564.00
2023-05-21T11:13:40.564Z,562.00
2023-05-21T11:14:40.605Z,559.00
2023-05-21T11:15:40.672Z,562.00
2023-05-21T11:16:40.814Z,558.00
2023-05-21T11:17:40.860Z,557.00
2023-05-21T11:18:40.868Z,565.00
2023-05-21T11:19:41.075Z,562.00
2023-05-21T11:20:40.970Z,559.00
2023-05-21T11:21:41.025Z,559.00
2023-05-21T11:22:41.082Z,556.00
2023-05-21T11:23:41.126Z,557.00
2023-05-21T11:24:41.220Z,555.00
2023-05-21T11:25:41.274Z,555.00
2023-05-21T11:26:41.362Z,551.00
2023-05-21T11:27:41.405Z,551.00
2023-05-21T11:28:41.483Z,552.00
2023-05-21T11:29:41.546Z,552.00
2023-05-21T11:30:41.895Z,549.00
2023-05-21T11:31:41.763Z,550.00
2023-05-21T11:32:41.723Z,549.00
2023-05-21T11:33:41.950Z,554.00
2023-05-21T11:34:41.828Z,547.00
2023-05-21T11:35:41.898Z,542.00
2023-05-21T11:36:41.950Z,544.00
2023-05-21T11:37:42.059Z,546.00
2023-05-21T11:38:42.062Z,545.00
2023-05-21T11:39:42.126Z,544.00
2023-05-21T11:40:42.238Z,544.00
2023-05-21T11:41:42.267Z,537.00
2023-05-21T11:42:42.360Z,540.00
2023-05-21T11:43:42.354Z,540.00
2023-05-21T11:44:42.460Z,537.00
2023-05-21T11:45:42.513Z,543.00
2023-05-21T11:46:42.630Z,537.00
2023-05-21T11:47:42.695Z,537.00
2023-05-21T11:48:42.709Z,535.00
2023-05-21T11:49:42.753Z,538.00
2023-05-21T11:50:42.827Z,534.00
2023-05-21T11:51:42.861Z,533.00
2023-05-21T11:52:43.007Z,535.00
2023-05-21T11:53:44.310Z,536.00
2023-05-21T11:54:43.048Z,531.00
2023-05-21T11:55:43.105Z,529.00
2023-05-21T11:56:43.172Z,528.00
2023-05-21T11:57:43.238Z,536.00
2023-05-21T11:58:43.342Z,533.00
2023-05-21T11:59:43.368Z,527.00
2023-05-21T12:00:43.447Z,531.00
2023-05-21T12:01:43.509Z,528.00
2023-05-21T12:02:43.591Z,528.00
2023-05-21T12:03:43.724Z,527.00
2023-05-21T12:04:43.675Z,525.00
2023-05-21T12:05:43.740Z,524.00
2023-05-21T12:06:43.838Z,522.00
2023-05-21T12:07:43.822Z,523.00
2023-05-21T12:08:43.917Z,523.00
2023-05-21T12:09:43.983Z,523.00
2023-05-21T12:10:46.154Z,529.00
2023-05-21T12:11:44.104Z,527.00
2023-05-21T12:12:54.659Z,525.00
2023-05-21T12:13:45.142Z,525.00
2023-05-21T12:14:44.161Z,525.00
2023-05-21T12:15:44.170Z,526.00
2023-05-21T12:16:44.239Z,526.00
2023-05-21T12:17:44.176Z,522.00
2023-05-21T12:18:44.192Z,521.00
2023-05-21T12:19:44.107Z,522.00
2023-05-21T12:20:44.147Z,522.00
2023-05-21T12:21:44.197Z,526.00
2023-05-21T12:22:44.244Z,526.00
2023-05-21T12:23:44.321Z,525.00
2023-05-21T12:24:44.380Z,527.00
2023-05-21T12:25:44.432Z,523.00
2023-05-21T12:26:44.499Z,525.00
2023-05-21T12:27:44.621Z,525.00
2023-05-21T12:28:44.643Z,528.00